sensor_id;sensor_type;location;lat;lon;timestamp;pressure;altitude;pressure_sealevel;temperature;humidity
71384;BME280;67558;52.166;5.004;2023-07-09T00:00:50;101752.59;;;27.27;48.26
71384;BME280;67558;52.166;5.004;2023-07-09T00:03:17;101744.97;;;27.20;48.44
71384;BME280;67558;52.166;5.004;2023-07-09T00:05:45;101748.25;;;27.26;48.38
71384;BME280;67558;52.166;5.004;2023-07-09T00:08:25;101755.69;;;27.25;48.95
71384;BME280;67558;52.166;5.004;2023-07-09T00:10:52;101731.75;;;27.10;48.57
71384;BME280;67558;52.166;5.004;2023-07-09T00:13:17;101734.50;;;27.10;48.99
71384;BME280;67558;52.166;5.004;2023-07-09T00:15:43;101732.56;;;26.94;49.18
71384;BME280;67558;52.166;5.004;2023-07-09T00:18:09;101761.28;;;27.13;49.40
71384;BME280;67558;52.166;5.004;2023-07-09T00:20:35;101731.19;;;26.85;49.28
71384;BME280;67558;52.166;5.004;2023-07-09T00:23:00;101776.31;;;27.03;49.10
71384;BME280;67558;52.166;5.004;2023-07-09T00:25:29;101764.38;;;26.95;49.19
71384;BME280;67558;52.166;5.004;2023-07-09T00:27:55;101727.00;;;26.59;49.23
71384;BME280;67558;52.166;5.004;2023-07-09T00:30:22;101774.28;;;26.84;49.37
71384;BME280;67558;52.166;5.004;2023-07-09T00:32:51;101743.09;;;26.61;49.83
71384;BME280;67558;52.166;5.004;2023-07-09T00:35:17;101756.91;;;26.64;49.99
71384;BME280;67558;52.166;5.004;2023-07-09T00:37:44;101748.81;;;26.55;49.67
71384;BME280;67558;52.166;5.004;2023-07-09T00:40:21;101779.16;;;26.75;50.59
71384;BME280;67558;52.166;5.004;2023-07-09T00:42:49;101783.50;;;26.76;49.91
71384;BME280;67558;52.166;5.004;2023-07-09T00:45:20;101784.19;;;26.73;49.71
71384;BME280;67558;52.166;5.004;2023-07-09T00:47:59;101794.38;;;26.72;50.14
71384;BME280;67558;52.166;5.004;2023-07-09T00:50:29;101793.94;;;26.70;50.25
71384;BME280;67558;52.166;5.004;2023-07-09T00:53:19;101787.66;;;26.70;50.92
71384;BME280;67558;52.166;5.004;2023-07-09T00:55:51;101787.28;;;26.71;50.26
71384;BME280;67558;52.166;5.004;2023-07-09T00:58:19;101785.34;;;26.72;50.50
71384;BME280;67558;52.166;5.004;2023-07-09T01:00:50;101787.28;;;26.71;50.74
71384;BME280;67558;52.166;5.004;2023-07-09T01:03:40;101786.75;;;26.66;50.74
71384;BME280;67558;52.166;5.004;2023-07-09T01:06:07;101738.16;;;26.38;50.12
71384;BME280;67558;52.166;5.004;2023-07-09T01:08:35;101762.34;;;26.48;50.58
71384;BME280;67558;52.166;5.004;2023-07-09T01:11:02;101781.50;;;26.61;50.68
71384;BME280;67558;52.166;5.004;2023-07-09T01:13:29;101776.16;;;26.52;50.74
71384;BME280;67558;52.166;5.004;2023-07-09T01:15:57;101752.34;;;26.40;50.70
71384;BME280;67558;52.166;5.004;2023-07-09T01:18:23;101776.53;;;26.50;50.83
71384;BME280;67558;52.166;5.004;2023-07-09T01:20:50;101790.91;;;26.47;51.18
71384;BME280;67558;52.166;5.004;2023-07-09T01:23:17;101783.63;;;26.39;50.83
71384;BME280;67558;52.166;5.004;2023-07-09T01:25:46;101789.34;;;26.46;51.00
71384;BME280;67558;52.166;5.004;2023-07-09T01:28:12;101790.41;;;26.42;51.30
71384;BME280;67558;52.166;5.004;2023-07-09T01:30:39;101789.13;;;26.39;51.56
71384;BME280;67558;52.166;5.004;2023-07-09T01:33:05;101787.09;;;26.36;51.55
71384;BME280;67558;52.166;5.004;2023-07-09T01:35:33;101779.91;;;26.31;52.08
71384;BME280;67558;52.166;5.004;2023-07-09T01:37:59;101783.78;;;26.30;52.16
71384;BME280;67558;52.166;5.004;2023-07-09T01:40:26;101783.44;;;26.32;51.85
71384;BME280;67558;52.166;5.004;2023-07-09T01:42:53;101791.22;;;26.30;52.16
71384;BME280;67558;52.166;5.004;2023-07-09T01:45:21;101783.72;;;26.27;52.28
71384;BME280;67558;52.166;5.004;2023-07-09T01:47:47;101727.06;;;25.90;52.07
71384;BME280;67558;52.166;5.004;2023-07-09T01:50:12;101747.25;;;25.98;52.57
71384;BME280;67558;52.166;5.004;2023-07-09T01:52:40;101757.06;;;25.99;52.48
71384;BME280;67558;52.166;5.004;2023-07-09T01:55:09;101768.25;;;26.06;52.57
71384;BME280;67558;52.166;5.004;2023-07-09T01:57:36;101798.69;;;26.17;52.45
71384;BME280;67558;52.166;5.004;2023-07-09T02:00:10;101795.44;;;26.11;52.64
71384;BME280;67558;52.166;5.004;2023-07-09T02:02:37;101795.75;;;26.10;52.56
71384;BME280;67558;52.166;5.004;2023-07-09T02:05:04;101770.91;;;25.90;52.99
71384;BME280;67558;52.166;5.004;2023-07-09T02:07:30;101799.19;;;26.07;52.73
71384;BME280;67558;52.166;5.004;2023-07-09T02:09:55;101763.72;;;25.86;53.02
71384;BME280;67558;52.166;5.004;2023-07-09T02:12:21;101758.47;;;25.81;53.10
71384;BME280;67558;52.166;5.004;2023-07-09T02:14:46;101800.59;;;26.01;52.76
71384;BME280;67558;52.166;5.004;2023-07-09T02:17:13;101748.78;;;25.71;53.08
71384;BME280;67558;52.166;5.004;2023-07-09T02:19:39;101770.78;;;25.87;52.94
71384;BME280;67558;52.166;5.004;2023-07-09T02:22:05;101790.66;;;25.96;53.28
71384;BME280;67558;52.166;5.004;2023-07-09T02:24:31;101790.66;;;25.96;53.28
71384;BME280;67558;52.166;5.004;2023-07-09T02:26:58;101777.06;;;25.87;53.52
71384;BME280;67558;52.166;5.004;2023-07-09T02:29:25;101806.97;;;26.05;53.64
71384;BME280;67558;52.166;5.004;2023-07-09T02:31:52;101781.75;;;25.99;53.18
71384;BME280;67558;52.166;5.004;2023-07-09T02:34:18;101742.50;;;25.70;53.39
71384;BME280;67558;52.166;5.004;2023-07-09T02:36:44;101803.88;;;26.06;53.23
71384;BME280;67558;52.166;5.004;2023-07-09T02:39:10;101800.22;;;26.02;53.22
71384;BME280;67558;52.166;5.004;2023-07-09T02:41:36;101775.47;;;25.86;53.35
71384;BME280;67558;52.166;5.004;2023-07-09T02:44:03;101775.34;;;25.83;53.26
71384;BME280;67558;52.166;5.004;2023-07-09T02:46:28;101803.91;;;25.94;53.49
71384;BME280;67558;52.166;5.004;2023-07-09T02:48:53;101793.41;;;25.84;53.99
71384;BME280;67558;52.166;5.004;2023-07-09T02:51:19;101767.72;;;25.64;53.60
71384;BME280;67558;52.166;5.004;2023-07-09T02:53:44;101786.78;;;25.72;53.73
71384;BME280;67558;52.166;5.004;2023-07-09T02:56:10;101761.03;;;25.49;53.87
71384;BME280;67558;52.166;5.004;2023-07-09T02:58:35;101791.13;;;25.86;53.61
71384;BME280;67558;52.166;5.004;2023-07-09T03:01:00;101779.06;;;25.62;54.13
71384;BME280;67558;52.166;5.004;2023-07-09T03:03:26;101805.28;;;25.75;54.58
71384;BME280;67558;52.166;5.004;2023-07-09T03:05:53;101800.25;;;25.78;54.47
71384;BME280;67558;52.166;5.004;2023-07-09T03:08:18;101779.97;;;25.66;54.53
71384;BME280;67558;52.166;5.004;2023-07-09T03:10:44;101758.59;;;25.60;54.61
71384;BME280;67558;52.166;5.004;2023-07-09T03:13:09;101788.16;;;25.79;54.42
71384;BME280;67558;52.166;5.004;2023-07-09T03:15:34;101770.13;;;25.65;54.54
71384;BME280;67558;52.166;5.004;2023-07-09T03:18:00;101796.16;;;25.71;54.48
71384;BME280;67558;52.166;5.004;2023-07-09T03:20:25;101770.16;;;25.53;54.76
71384;BME280;67558;52.166;5.004;2023-07-09T03:22:50;101763.34;;;25.47;54.84
71384;BME280;67558;52.166;5.004;2023-07-09T03:25:16;101793.75;;;25.70;54.72
71384;BME280;67558;52.166;5.004;2023-07-09T03:27:41;101783.16;;;25.56;54.83
71384;BME280;67558;52.166;5.004;2023-07-09T03:30:07;101792.06;;;25.65;55.02
71384;BME280;67558;52.166;5.004;2023-07-09T03:32:32;101766.75;;;25.44;54.86
71384;BME280;67558;52.166;5.004;2023-07-09T03:34:58;101756.50;;;25.41;54.96
71384;BME280;67558;52.166;5.004;2023-07-09T03:37:23;101768.69;;;25.43;55.11
71384;BME280;67558;52.166;5.004;2023-07-09T03:39:48;101740.97;;;25.20;54.94
71384;BME280;67558;52.166;5.004;2023-07-09T03:42:14;101783.41;;;25.39;54.90
71384;BME280;67558;52.166;5.004;2023-07-09T03:44:39;101787.72;;;25.40;54.81
71384;BME280;67558;52.166;5.004;2023-07-09T03:47:06;101767.31;;;25.25;55.05
71384;BME280;67558;52.166;5.004;2023-07-09T03:49:32;101808.75;;;25.48;55.30
71384;BME280;67558;52.166;5.004;2023-07-09T03:51:57;101799.38;;;25.37;55.20
71384;BME280;67558;52.166;5.004;2023-07-09T03:54:23;101811.13;;;25.37;54.97
71384;BME280;67558;52.166;5.004;2023-07-09T03:56:48;101779.97;;;25.17;55.34
71384;BME280;67558;52.166;5.004;2023-07-09T03:59:13;101770.03;;;25.12;55.46
71384;BME280;67558;52.166;5.004;2023-07-09T04:01:39;101812.38;;;25.40;55.65
71384;BME280;67558;52.166;5.004;2023-07-09T04:04:04;101815.47;;;25.38;55.66
71384;BME280;67558;52.166;5.004;2023-07-09T04:06:33;101816.94;;;25.36;55.68
71384;BME280;67558;52.166;5.004;2023-07-09T04:08:58;101805.19;;;25.23;55.93
71384;BME280;67558;52.166;5.004;2023-07-09T04:11:24;101787.25;;;25.13;55.76
71384;BME280;67558;52.166;5.004;2023-07-09T04:13:49;101738.19;;;24.83;55.81
71384;BME280;67558;52.166;5.004;2023-07-09T04:16:15;101808.19;;;25.30;55.83
71384;BME280;67558;52.166;5.004;2023-07-09T04:18:40;101799.50;;;25.28;55.84
71384;BME280;67558;52.166;5.004;2023-07-09T04:21:05;101784.59;;;25.17;55.85
71384;BME280;67558;52.166;5.004;2023-07-09T04:23:31;101807.34;;;25.29;55.94
71384;BME280;67558;52.166;5.004;2023-07-09T04:25:56;101784.75;;;25.20;55.98
71384;BME280;67558;52.166;5.004;2023-07-09T04:28:22;101803.03;;;25.28;55.91
71384;BME280;67558;52.166;5.004;2023-07-09T04:30:51;101817.28;;;25.46;55.96
71384;BME280;67558;52.166;5.004;2023-07-09T04:33:18;101823.69;;;25.50;55.89
71384;BME280;67558;52.166;5.004;2023-07-09T04:35:45;101757.94;;;25.13;55.70
71384;BME280;67558;52.166;5.004;2023-07-09T04:38:11;101805.31;;;25.39;55.87
71384;BME280;67558;52.166;5.004;2023-07-09T04:40:36;101805.09;;;25.44;55.85
71384;BME280;67558;52.166;5.004;2023-07-09T04:43:02;101788.88;;;25.39;55.77
71384;BME280;67558;52.166;5.004;2023-07-09T04:45:27;101795.16;;;25.51;55.60
71384;BME280;67558;52.166;5.004;2023-07-09T04:47:52;101805.41;;;25.54;55.96
71384;BME280;67558;52.166;5.004;2023-07-09T04:50:18;101782.03;;;25.45;56.12
71384;BME280;67558;52.166;5.004;2023-07-09T04:52:43;101791.72;;;25.54;55.80
71384;BME280;67558;52.166;5.004;2023-07-09T04:55:09;101751.78;;;25.29;56.08
71384;BME280;67558;52.166;5.004;2023-07-09T04:57:34;101785.66;;;25.61;55.89
71384;BME280;67558;52.166;5.004;2023-07-09T04:59:59;101781.56;;;25.55;55.91
71384;BME280;67558;52.166;5.004;2023-07-09T05:02:25;101773.00;;;25.57;56.31
71384;BME280;67558;52.166;5.004;2023-07-09T05:04:51;101813.72;;;25.83;56.20
71384;BME280;67558;52.166;5.004;2023-07-09T05:07:16;101808.25;;;25.83;56.57
71384;BME280;67558;52.166;5.004;2023-07-09T05:09:42;101810.88;;;25.91;56.48
71384;BME280;67558;52.166;5.004;2023-07-09T05:12:08;101793.03;;;25.85;56.19
71384;BME280;67558;52.166;5.004;2023-07-09T05:14:33;101795.59;;;25.90;56.50
71384;BME280;67558;52.166;5.004;2023-07-09T05:16:59;101788.72;;;25.84;56.46
71384;BME280;67558;52.166;5.004;2023-07-09T05:19:24;101795.44;;;25.99;56.12
71384;BME280;67558;52.166;5.004;2023-07-09T05:21:49;101805.94;;;26.09;56.15
71384;BME280;67558;52.166;5.004;2023-07-09T05:24:15;101802.50;;;26.12;56.54
71384;BME280;67558;52.166;5.004;2023-07-09T05:26:40;101808.53;;;26.18;56.38
71384;BME280;67558;52.166;5.004;2023-07-09T05:29:06;101800.41;;;26.22;56.31
71384;BME280;67558;52.166;5.004;2023-07-09T05:31:32;101803.56;;;26.36;56.74
71384;BME280;67558;52.166;5.004;2023-07-09T05:34:06;101817.91;;;26.45;56.67
71384;BME280;67558;52.166;5.004;2023-07-09T05:36:31;101798.69;;;26.45;56.58
71384;BME280;67558;52.166;5.004;2023-07-09T05:38:57;101807.09;;;26.65;55.93
71384;BME280;67558;52.166;5.004;2023-07-09T05:41:22;101794.09;;;26.62;55.89
71384;BME280;67558;52.166;5.004;2023-07-09T05:43:50;101806.25;;;26.76;55.89
71384;BME280;67558;52.166;5.004;2023-07-09T05:46:15;101811.28;;;26.90;55.88
71384;BME280;67558;52.166;5.004;2023-07-09T05:48:41;101790.28;;;26.82;55.23
71384;BME280;67558;52.166;5.004;2023-07-09T05:51:06;101814.06;;;27.06;55.81
71384;BME280;67558;52.166;5.004;2023-07-09T05:53:32;101813.44;;;27.13;55.46
71384;BME280;67558;52.166;5.004;2023-07-09T05:55:58;101814.41;;;27.21;55.86
71384;BME280;67558;52.166;5.004;2023-07-09T05:58:24;101813.81;;;27.27;55.68
71384;BME280;67558;52.166;5.004;2023-07-09T06:00:51;101790.50;;;27.21;55.32
71384;BME280;67558;52.166;5.004;2023-07-09T06:03:20;101805.03;;;27.37;55.26
71384;BME280;67558;52.166;5.004;2023-07-09T06:05:47;101812.72;;;27.48;55.00
71384;BME280;67558;52.166;5.004;2023-07-09T06:08:15;101755.16;;;27.20;54.96
71384;BME280;67558;52.166;5.004;2023-07-09T06:10:50;101809.88;;;27.60;55.28
71384;BME280;67558;52.166;5.004;2023-07-09T06:13:16;101804.00;;;27.62;55.12
71384;BME280;67558;52.166;5.004;2023-07-09T06:15:41;101810.56;;;27.73;54.66
71384;BME280;67558;52.166;5.004;2023-07-09T06:18:07;101796.00;;;27.72;54.73
71384;BME280;67558;52.166;5.004;2023-07-09T06:20:32;101822.19;;;28.02;54.43
71384;BME280;67558;52.166;5.004;2023-07-09T06:22:57;101813.97;;;28.02;54.21
71384;BME280;67558;52.166;5.004;2023-07-09T06:25:23;101819.25;;;28.10;54.24
71384;BME280;67558;52.166;5.004;2023-07-09T06:27:49;101834.09;;;28.25;54.28
71384;BME280;67558;52.166;5.004;2023-07-09T06:30:15;101747.56;;;27.84;54.24
71384;BME280;67558;52.166;5.004;2023-07-09T06:32:42;101822.94;;;28.37;54.08
71384;BME280;67558;52.166;5.004;2023-07-09T06:35:07;101816.63;;;28.37;54.09
71384;BME280;67558;52.166;5.004;2023-07-09T06:37:33;101826.84;;;28.56;53.84
71384;BME280;67558;52.166;5.004;2023-07-09T06:39:58;101829.81;;;28.67;53.57
71384;BME280;67558;52.166;5.004;2023-07-09T06:42:24;101812.00;;;28.61;53.29
71384;BME280;67558;52.166;5.004;2023-07-09T06:44:49;101857.44;;;28.93;53.06
71384;BME280;67558;52.166;5.004;2023-07-09T06:47:14;101830.19;;;28.88;52.94
71384;BME280;67558;52.166;5.004;2023-07-09T06:49:39;101829.16;;;28.96;53.13
71384;BME280;67558;52.166;5.004;2023-07-09T06:52:05;101825.50;;;29.12;53.12
71384;BME280;67558;52.166;5.004;2023-07-09T06:54:31;101844.72;;;29.31;51.99
71384;BME280;67558;52.166;5.004;2023-07-09T06:56:56;101817.84;;;29.25;52.10
71384;BME280;67558;52.166;5.004;2023-07-09T06:59:22;101803.72;;;29.26;51.56
71384;BME280;67558;52.166;5.004;2023-07-09T07:01:47;101836.84;;;29.56;51.24
71384;BME280;67558;52.166;5.004;2023-07-09T07:04:12;101842.16;;;29.69;51.75
71384;BME280;67558;52.166;5.004;2023-07-09T07:06:38;101841.44;;;29.72;50.79
71384;BME280;67558;52.166;5.004;2023-07-09T07:09:03;101819.28;;;29.68;50.74
71384;BME280;67558;52.166;5.004;2023-07-09T07:11:29;101844.41;;;29.86;50.42
71384;BME280;67558;52.166;5.004;2023-07-09T07:13:55;101841.66;;;29.90;50.55
71384;BME280;67558;52.166;5.004;2023-07-09T07:16:21;101851.97;;;29.93;50.45
71384;BME280;67558;52.166;5.004;2023-07-09T07:18:46;101844.84;;;29.92;50.40
71384;BME280;67558;52.166;5.004;2023-07-09T07:21:11;101863.16;;;30.07;50.46
71384;BME280;67558;52.166;5.004;2023-07-09T07:23:37;101872.28;;;30.11;50.31
71384;BME280;67558;52.166;5.004;2023-07-09T07:26:02;101821.53;;;30.16;49.73
71384;BME280;67558;52.166;5.004;2023-07-09T07:28:29;101864.91;;;30.49;49.24
71384;BME280;67558;52.166;5.004;2023-07-09T07:30:59;101864.91;;;30.49;48.69
71384;BME280;67558;52.166;5.004;2023-07-09T07:33:25;101851.78;;;30.39;48.70
71384;BME280;67558;52.166;5.004;2023-07-09T07:35:50;101840.72;;;30.35;48.45
71384;BME280;67558;52.166;5.004;2023-07-09T07:38:15;101861.00;;;30.54;47.83
71384;BME280;67558;52.166;5.004;2023-07-09T07:40:44;101846.38;;;30.50;47.55
71384;BME280;67558;52.166;5.004;2023-07-09T07:43:10;101819.47;;;30.39;47.37
71384;BME280;67558;52.166;5.004;2023-07-09T07:45:35;101790.06;;;30.20;47.14
71384;BME280;67558;52.166;5.004;2023-07-09T07:48:00;101872.28;;;30.72;46.83
71384;BME280;67558;52.166;5.004;2023-07-09T07:50:26;101854.50;;;30.73;46.86
71384;BME280;67558;52.166;5.004;2023-07-09T07:52:51;101863.25;;;30.78;46.60
71384;BME280;67558;52.166;5.004;2023-07-09T07:55:17;101855.00;;;30.82;46.97
71384;BME280;67558;52.166;5.004;2023-07-09T07:57:43;101845.50;;;30.79;46.56
71384;BME280;67558;52.166;5.004;2023-07-09T08:00:09;101790.06;;;30.20;47.08
71384;BME280;67558;52.166;5.004;2023-07-09T08:02:35;101836.84;;;30.44;47.38
71384;BME280;67558;52.166;5.004;2023-07-09T08:05:00;101858.63;;;30.52;47.44
71384;BME280;67558;52.166;5.004;2023-07-09T08:07:26;101834.44;;;30.38;47.77
71384;BME280;67558;52.166;5.004;2023-07-09T08:09:51;101849.91;;;30.47;47.78
71384;BME280;67558;52.166;5.004;2023-07-09T08:12:17;101859.38;;;30.49;47.82
71384;BME280;67558;52.166;5.004;2023-07-09T08:14:45;101863.28;;;30.45;47.28
71384;BME280;67558;52.166;5.004;2023-07-09T08:17:11;101861.25;;;30.38;47.34
71384;BME280;67558;52.166;5.004;2023-07-09T08:19:51;101846.56;;;30.30;47.73
71384;BME280;67558;52.166;5.004;2023-07-09T08:22:17;101829.09;;;30.23;47.63
71384;BME280;67558;52.166;5.004;2023-07-09T08:24:46;101834.28;;;30.28;48.01
71384;BME280;67558;52.166;5.004;2023-07-09T08:27:11;101836.63;;;30.26;47.83
71384;BME280;67558;52.166;5.004;2023-07-09T08:29:37;101852.50;;;30.32;47.96
71384;BME280;67558;52.166;5.004;2023-07-09T08:32:03;101844.06;;;30.21;48.09
71384;BME280;67558;52.166;5.004;2023-07-09T08:34:29;101839.53;;;30.36;47.80
71384;BME280;67558;52.166;5.004;2023-07-09T08:36:54;101842.66;;;30.35;48.14
71384;BME280;67558;52.166;5.004;2023-07-09T08:39:20;101831.50;;;30.28;48.32
71384;BME280;67558;52.166;5.004;2023-07-09T08:41:54;101821.25;;;30.25;48.29
71384;BME280;67558;52.166;5.004;2023-07-09T08:44:48;101841.50;;;30.36;48.05
71384;BME280;67558;52.166;5.004;2023-07-09T08:47:31;101825.91;;;30.54;47.57
71384;BME280;67558;52.166;5.004;2023-07-09T08:50:24;101828.41;;;30.67;47.55
71384;BME280;67558;52.166;5.004;2023-07-09T08:52:51;101822.63;;;30.41;48.17
71384;BME280;67558;52.166;5.004;2023-07-09T08:55:24;101828.47;;;30.74;47.61
71384;BME280;67558;52.166;5.004;2023-07-09T08:57:57;101828.91;;;30.38;48.18
71384;BME280;67558;52.166;5.004;2023-07-09T09:00:35;101830.50;;;30.39;48.20
71384;BME280;67558;52.166;5.004;2023-07-09T09:03:27;101826.50;;;30.33;48.59
71384;BME280;67558;52.166;5.004;2023-07-09T09:05:58;101824.53;;;30.34;48.26
71384;BME280;67558;52.166;5.004;2023-07-09T09:08:39;101841.50;;;30.36;47.34
71384;BME280;67558;52.166;5.004;2023-07-09T09:11:21;101831.97;;;30.30;47.41
71384;BME280;67558;52.166;5.004;2023-07-09T09:13:52;101835.78;;;30.21;47.48
71384;BME280;67558;52.166;5.004;2023-07-09T09:16:25;101813.94;;;30.09;47.07
71384;BME280;67558;52.166;5.004;2023-07-09T09:18:55;101805.16;;;30.00;46.85
71384;BME280;67558;52.166;5.004;2023-07-09T09:21:30;101831.72;;;30.12;46.74
71384;BME280;67558;52.166;5.004;2023-07-09T09:23:58;101828.56;;;30.13;46.72
71384;BME280;67558;52.166;5.004;2023-07-09T09:26:31;101820.72;;;30.15;46.64
71384;BME280;67558;52.166;5.004;2023-07-09T09:28:56;101824.31;;;30.19;46.16
71384;BME280;67558;52.166;5.004;2023-07-09T09:31:24;101805.25;;;30.07;46.16
71384;BME280;67558;52.166;5.004;2023-07-09T09:33:51;101823.91;;;30.17;45.75
71384;BME280;67558;52.166;5.004;2023-07-09T09:36:23;101822.69;;;30.15;45.67
71384;BME280;67558;52.166;5.004;2023-07-09T09:38:49;101750.09;;;29.73;45.67
71384;BME280;67558;52.166;5.004;2023-07-09T09:41:24;101809.72;;;30.19;46.33
71384;BME280;67558;52.166;5.004;2023-07-09T09:43:52;101824.09;;;30.32;46.46
71384;BME280;67558;52.166;5.004;2023-07-09T09:46:21;101824.19;;;30.39;46.43
71384;BME280;67558;52.166;5.004;2023-07-09T09:48:49;101810.38;;;30.39;46.45
71384;BME280;67558;52.166;5.004;2023-07-09T09:51:16;101821.16;;;30.51;46.50
71384;BME280;67558;52.166;5.004;2023-07-09T09:53:47;101800.16;;;30.43;46.90
71384;BME280;67558;52.166;5.004;2023-07-09T09:56:18;101815.38;;;30.64;46.32
71384;BME280;67558;52.166;5.004;2023-07-09T09:58:44;101821.31;;;30.66;46.23
71384;BME280;67558;52.166;5.004;2023-07-09T10:01:17;101803.47;;;30.56;46.47
71384;BME280;67558;52.166;5.004;2023-07-09T10:03:43;101817.31;;;30.59;46.59
71384;BME280;67558;52.166;5.004;2023-07-09T10:11:29;101827.28;;;30.71;46.45
71384;BME280;67558;52.166;5.004;2023-07-09T10:14:01;101832.84;;;30.75;46.50
71384;BME280;67558;52.166;5.004;2023-07-09T10:16:34;101826.84;;;30.66;45.19
71384;BME280;67558;52.166;5.004;2023-07-09T10:19:14;101848.22;;;30.76;45.38
71384;BME280;67558;52.166;5.004;2023-07-09T10:27:32;101832.28;;;30.58;44.16
71384;BME280;67558;52.166;5.004;2023-07-09T10:30:29;101843.66;;;30.53;44.56
71384;BME280;67558;52.166;5.004;2023-07-09T10:33:27;101822.66;;;30.45;44.57
71384;BME280;67558;52.166;5.004;2023-07-09T10:36:12;101838.94;;;30.54;44.60
71384;BME280;67558;52.166;5.004;2023-07-09T10:38:55;101840.13;;;30.56;44.44
71384;BME280;67558;52.166;5.004;2023-07-09T10:41:23;101837.38;;;30.56;44.55
71384;BME280;67558;52.166;5.004;2023-07-09T10:46:24;101836.16;;;30.50;44.32
71384;BME280;67558;52.166;5.004;2023-07-09T10:48:52;101819.50;;;30.43;43.94
71384;BME280;67558;52.166;5.004;2023-07-09T10:54:24;101841.25;;;30.48;44.23
71384;BME280;67558;52.166;5.004;2023-07-09T10:56:58;101800.66;;;30.18;43.90
71384;BME280;67558;52.166;5.004;2023-07-09T10:59:31;101825.31;;;30.34;43.95
71384;BME280;67558;52.166;5.004;2023-07-09T11:02:06;101842.00;;;30.45;44.05
71384;BME280;67558;52.166;5.004;2023-07-09T11:04:41;101845.66;;;30.56;43.84
71384;BME280;67558;52.166;5.004;2023-07-09T11:07:13;101844.44;;;30.50;44.09
71384;BME280;67558;52.166;5.004;2023-07-09T11:09:42;101807.88;;;30.27;44.35
71384;BME280;67558;52.166;5.004;2023-07-09T11:12:13;101816.47;;;30.21;44.43
71384;BME280;67558;52.166;5.004;2023-07-09T11:14:48;101845.41;;;30.35;44.83
71384;BME280;67558;52.166;5.004;2023-07-09T11:17:21;101828.69;;;30.20;44.91
71384;BME280;67558;52.166;5.004;2023-07-09T11:19:53;101816.81;;;30.16;45.20
71384;BME280;67558;52.166;5.004;2023-07-09T11:22:26;101828.69;;;30.20;45.35
71384;BME280;67558;52.166;5.004;2023-07-09T11:24:53;101822.75;;;30.22;45.44
71384;BME280;67558;52.166;5.004;2023-07-09T11:27:29;101793.00;;;30.05;45.59
71384;BME280;67558;52.166;5.004;2023-07-09T11:30:00;101825.56;;;30.26;45.02
71384;BME280;67558;52.166;5.004;2023-07-09T11:32:27;101786.31;;;30.06;45.29
71384;BME280;67558;52.166;5.004;2023-07-09T11:34:53;101824.47;;;30.30;45.11
71384;BME280;67558;52.166;5.004;2023-07-09T11:37:25;101802.59;;;30.14;44.93
71384;BME280;67558;52.166;5.004;2023-07-09T11:39:50;101834.78;;;30.33;45.01
71384;BME280;67558;52.166;5.004;2023-07-09T11:42:50;101814.91;;;30.24;44.86
71384;BME280;67558;52.166;5.004;2023-07-09T11:45:19;101831.19;;;30.33;44.69
71384;BME280;67558;52.166;5.004;2023-07-09T11:48:14;101858.44;;;30.34;44.86
71384;BME280;67558;52.166;5.004;2023-07-09T11:50:47;101863.25;;;30.41;44.26
71384;BME280;67558;52.166;5.004;2023-07-09T11:55:54;101839.78;;;30.28;44.46
71384;BME280;67558;52.166;5.004;2023-07-09T11:58:19;101861.97;;;30.35;44.60
71384;BME280;67558;52.166;5.004;2023-07-09T12:00:56;101813.44;;;30.00;43.97
71384;BME280;67558;52.166;5.004;2023-07-09T12:03:29;101883.81;;;30.47;44.05
71384;BME280;67558;52.166;5.004;2023-07-09T12:05:59;101869.09;;;30.36;43.48
71384;BME280;67558;52.166;5.004;2023-07-09T12:08:30;101884.19;;;30.46;43.71
71384;BME280;67558;52.166;5.004;2023-07-09T12:10:57;101878.28;;;30.47;43.54
71384;BME280;67558;52.166;5.004;2023-07-09T12:13:23;101818.66;;;30.05;43.54
71384;BME280;67558;52.166;5.004;2023-07-09T12:15:48;101858.38;;;30.31;43.76
71384;BME280;67558;52.166;5.004;2023-07-09T12:18:20;101892.16;;;30.54;43.11
71384;BME280;67558;52.166;5.004;2023-07-09T12:20:51;101875.88;;;30.42;43.12
71384;BME280;67558;52.166;5.004;2023-07-09T12:23:31;101863.63;;;30.39;42.84
71384;BME280;67558;52.166;5.004;2023-07-09T12:26:01;101869.75;;;30.59;42.24
71384;BME280;67558;52.166;5.004;2023-07-09T12:28:28;101913.59;;;30.65;42.47
71384;BME280;67558;52.166;5.004;2023-07-09T12:30:54;101909.16;;;30.56;42.41
71384;BME280;67558;52.166;5.004;2023-07-09T12:33:22;101922.66;;;30.61;42.78
71384;BME280;67558;52.166;5.004;2023-07-09T12:35:58;101897.69;;;30.54;43.09
71384;BME280;67558;52.166;5.004;2023-07-09T12:38:26;101904.22;;;30.73;42.97
71384;BME280;67558;52.166;5.004;2023-07-09T12:40:53;101892.41;;;30.76;43.14
71384;BME280;67558;52.166;5.004;2023-07-09T12:43:25;101863.03;;;30.57;42.94
71384;BME280;67558;52.166;5.004;2023-07-09T12:45:52;101885.19;;;30.64;43.03
71384;BME280;67558;52.166;5.004;2023-07-09T12:48:21;101889.94;;;30.64;43.55
71384;BME280;67558;52.166;5.004;2023-07-09T12:50:50;101885.25;;;30.68;43.27
71384;BME280;67558;52.166;5.004;2023-07-09T12:53:19;101893.94;;;30.70;43.46
71384;BME280;67558;52.166;5.004;2023-07-09T12:55:49;101890.41;;;30.73;43.24
71384;BME280;67558;52.166;5.004;2023-07-09T12:58:21;101852.72;;;30.50;43.29
71384;BME280;67558;52.166;5.004;2023-07-09T13:00:49;101883.69;;;30.74;43.48
71384;BME280;67558;52.166;5.004;2023-07-09T13:03:18;101818.59;;;30.32;43.90
71384;BME280;67558;52.166;5.004;2023-07-09T13:08:21;101903.16;;;30.85;43.58
71384;BME280;67558;52.166;5.004;2023-07-09T13:10:47;101879.84;;;30.78;43.52
71384;BME280;67558;52.166;5.004;2023-07-09T13:13:18;101892.56;;;30.87;43.11
71384;BME280;67558;52.166;5.004;2023-07-09T13:15:57;101905.91;;;30.85;43.13
71384;BME280;67558;52.166;5.004;2023-07-09T13:18:25;101896.66;;;30.66;43.07